sensor_id;sensor_type;location;lat;lon;timestamp;P1;durP1;ratioP1;P2;durP2;ratioP2
32138;SDS011;18644;48.700;9.210;2024-02-16T00:01:25;3.67;;;2.40;;
32138;SDS011;18644;48.700;9.210;2024-02-16T00:03:51;4.40;;;2.92;;
32138;SDS011;18644;48.700;9.210;2024-02-16T00:06:18;4.18;;;2.53;;
32138;SDS011;18644;48.700;9.210;2024-02-16T00:08:45;3.03;;;2.45;;
32138;SDS011;18644;48.700;9.210;2024-02-16T00:11:12;3.88;;;2.40;;
32138;SDS011;18644;48.700;9.210;2024-02-16T00:13:40;3.65;;;2.65;;
32138;SDS011;18644;48.700;9.210;2024-02-16T00:16:06;2.95;;;2.30;;
32138;SDS011;18644;48.700;9.210;2024-02-16T00:18:35;2.53;;;2.17;;
32138;SDS011;18644;48.700;9.210;2024-02-16T00:21:02;2.65;;;2.35;;
32138;SDS011;18644;48.700;9.210;2024-02-16T00:23:30;2.85;;;2.13;;
32138;SDS011;18644;48.700;9.210;2024-02-16T00:25:58;2.72;;;1.98;;
32138;SDS011;18644;48.700;9.210;2024-02-16T00:28:27;3.25;;;2.38;;
32138;SDS011;18644;48.700;9.210;2024-02-16T00:30:54;3.88;;;2.03;;
32138;SDS011;18644;48.700;9.210;2024-02-16T00:33:21;2.53;;;2.03;;
32138;SDS011;18644;48.700;9.210;2024-02-16T00:35:49;3.47;;;2.45;;
32138;SDS011;18644;48.700;9.210;2024-02-16T00:38:18;3.75;;;2.55;;
32138;SDS011;18644;48.700;9.210;2024-02-16T00:40:44;4.93;;;2.28;;
32138;SDS011;18644;48.700;9.210;2024-02-16T00:43:11;3.25;;;2.50;;
32138;SDS011;18644;48.700;9.210;2024-02-16T00:45:39;4.40;;;2.47;;
32138;SDS011;18644;48.700;9.210;2024-02-16T00:48:09;3.08;;;2.13;;
32138;SDS011;18644;48.700;9.210;2024-02-16T00:50:36;3.17;;;2.47;;
32138;SDS011;18644;48.700;9.210;2024-02-16T00:53:04;3.08;;;2.42;;
32138;SDS011;18644;48.700;9.210;2024-02-16T00:55:31;2.55;;;1.92;;
32138;SDS011;18644;48.700;9.210;2024-02-16T00:57:58;2.53;;;2.08;;
32138;SDS011;18644;48.700;9.210;2024-02-16T01:00:25;2.28;;;1.98;;
32138;SDS011;18644;48.700;9.210;2024-02-16T01:02:52;12.80;;;2.53;;
32138;SDS011;18644;48.700;9.210;2024-02-16T01:05:19;2.33;;;2.05;;
32138;SDS011;18644;48.700;9.210;2024-02-16T01:07:46;2.15;;;1.85;;
32138;SDS011;18644;48.700;9.210;2024-02-16T01:10:14;3.92;;;2.15;;
32138;SDS011;18644;48.700;9.210;2024-02-16T01:12:41;2.97;;;2.13;;
32138;SDS011;18644;48.700;9.210;2024-02-16T01:15:08;3.75;;;2.55;;
32138;SDS011;18644;48.700;9.210;2024-02-16T01:17:36;8.45;;;2.38;;
32138;SDS011;18644;48.700;9.210;2024-02-16T01:20:04;2.88;;;2.05;;
32138;SDS011;18644;48.700;9.210;2024-02-16T01:22:35;3.72;;;2.53;;
32138;SDS011;18644;48.700;9.210;2024-02-16T01:25:02;3.28;;;2.60;;
32138;SDS011;18644;48.700;9.210;2024-02-16T01:27:31;5.88;;;3.20;;
32138;SDS011;18644;48.700;9.210;2024-02-16T01:29:58;3.47;;;2.55;;
32138;SDS011;18644;48.700;9.210;2024-02-16T01:32:25;4.22;;;2.58;;
32138;SDS011;18644;48.700;9.210;2024-02-16T01:34:52;4.18;;;2.55;;
32138;SDS011;18644;48.700;9.210;2024-02-16T01:37:19;3.78;;;2.60;;
32138;SDS011;18644;48.700;9.210;2024-02-16T01:39:46;5.20;;;2.40;;
32138;SDS011;18644;48.700;9.210;2024-02-16T01:42:13;3.40;;;2.53;;
32138;SDS011;18644;48.700;9.210;2024-02-16T01:44:41;3.35;;;2.55;;
32138;SDS011;18644;48.700;9.210;2024-02-16T01:47:08;4.25;;;2.47;;
32138;SDS011;18644;48.700;9.210;2024-02-16T01:49:35;3.67;;;2.42;;
32138;SDS011;18644;48.700;9.210;2024-02-16T01:52:02;3.78;;;2.65;;
32138;SDS011;18644;48.700;9.210;2024-02-16T01:54:30;3.40;;;2.30;;
32138;SDS011;18644;48.700;9.210;2024-02-16T01:56:57;3.55;;;2.30;;
32138;SDS011;18644;48.700;9.210;2024-02-16T01:59:25;3.42;;;2.28;;
32138;SDS011;18644;48.700;9.210;2024-02-16T02:01:54;3.78;;;2.25;;
32138;SDS011;18644;48.700;9.210;2024-02-16T02:04:21;4.07;;;2.50;;
32138;SDS011;18644;48.700;9.210;2024-02-16T02:06:48;3.25;;;2.13;;
32138;SDS011;18644;48.700;9.210;2024-02-16T02:09:15;3.20;;;2.03;;
32138;SDS011;18644;48.700;9.210;2024-02-16T02:11:42;2.75;;;1.90;;
32138;SDS011;18644;48.700;9.210;2024-02-16T02:14:09;2.65;;;1.73;;
32138;SDS011;18644;48.700;9.210;2024-02-16T02:16:36;3.22;;;2.10;;
32138;SDS011;18644;48.700;9.210;2024-02-16T02:19:04;2.58;;;2.10;;
32138;SDS011;18644;48.700;9.210;2024-02-16T02:21:31;2.13;;;1.80;;
32138;SDS011;18644;48.700;9.210;2024-02-16T02:23:59;2.28;;;1.70;;
32138;SDS011;18644;48.700;9.210;2024-02-16T02:26:26;2.92;;;2.10;;
32138;SDS011;18644;48.700;9.210;2024-02-16T02:28:54;2.75;;;1.95;;
32138;SDS011;18644;48.700;9.210;2024-02-16T02:31:20;3.45;;;2.50;;
32138;SDS011;18644;48.700;9.210;2024-02-16T02:33:47;4.43;;;2.60;;
32138;SDS011;18644;48.700;9.210;2024-02-16T02:36:14;2.90;;;2.20;;
32138;SDS011;18644;48.700;9.210;2024-02-16T02:38:41;3.78;;;2.38;;
32138;SDS011;18644;48.700;9.210;2024-02-16T02:41:10;2.40;;;1.88;;
32138;SDS011;18644;48.700;9.210;2024-02-16T02:43:37;3.10;;;2.38;;
32138;SDS011;18644;48.700;9.210;2024-02-16T02:46:04;2.65;;;2.00;;
32138;SDS011;18644;48.700;9.210;2024-02-16T02:48:31;2.58;;;1.92;;
32138;SDS011;18644;48.700;9.210;2024-02-16T02:50:58;1.55;;;1.45;;
32138;SDS011;18644;48.700;9.210;2024-02-16T02:53:26;3.70;;;1.92;;
32138;SDS011;18644;48.700;9.210;2024-02-16T02:55:54;2.45;;;1.75;;
32138;SDS011;18644;48.700;9.210;2024-02-16T02:58:22;2.15;;;1.95;;
32138;SDS011;18644;48.700;9.210;2024-02-16T03:00:49;2.25;;;1.80;;
32138;SDS011;18644;48.700;9.210;2024-02-16T03:03:16;2.45;;;1.80;;
32138;SDS011;18644;48.700;9.210;2024-02-16T03:05:43;2.70;;;1.98;;
32138;SDS011;18644;48.700;9.210;2024-02-16T03:08:10;2.08;;;1.88;;
32138;SDS011;18644;48.700;9.210;2024-02-16T03:10:36;3.35;;;2.08;;
32138;SDS011;18644;48.700;9.210;2024-02-16T03:13:04;5.95;;;2.22;;
32138;SDS011;18644;48.700;9.210;2024-02-16T03:15:33;5.35;;;2.90;;
32138;SDS011;18644;48.700;9.210;2024-02-16T03:18:00;4.18;;;2.40;;
32138;SDS011;18644;48.700;9.210;2024-02-16T03:20:27;4.95;;;2.58;;
32138;SDS011;18644;48.700;9.210;2024-02-16T03:22:55;4.10;;;2.80;;
32138;SDS011;18644;48.700;9.210;2024-02-16T03:25:22;5.07;;;3.10;;
32138;SDS011;18644;48.700;9.210;2024-02-16T03:27:50;3.55;;;2.88;;
32138;SDS011;18644;48.700;9.210;2024-02-16T03:30:18;3.63;;;2.50;;
32138;SDS011;18644;48.700;9.210;2024-02-16T03:32:49;2.38;;;2.17;;
32138;SDS011;18644;48.700;9.210;2024-02-16T03:35:17;4.47;;;2.92;;
32138;SDS011;18644;48.700;9.210;2024-02-16T03:37:44;5.50;;;2.95;;
32138;SDS011;18644;48.700;9.210;2024-02-16T03:40:11;3.95;;;2.83;;
32138;SDS011;18644;48.700;9.210;2024-02-16T03:42:39;5.22;;;2.63;;
32138;SDS011;18644;48.700;9.210;2024-02-16T03:45:06;2.90;;;2.40;;
32138;SDS011;18644;48.700;9.210;2024-02-16T03:47:34;3.40;;;2.30;;
32138;SDS011;18644;48.700;9.210;2024-02-16T03:50:02;3.65;;;2.17;;
32138;SDS011;18644;48.700;9.210;2024-02-16T03:52:30;3.55;;;2.70;;
32138;SDS011;18644;48.700;9.210;2024-02-16T03:54:57;3.80;;;2.60;;
32138;SDS011;18644;48.700;9.210;2024-02-16T03:57:23;3.40;;;2.40;;
32138;SDS011;18644;48.700;9.210;2024-02-16T03:59:51;6.43;;;3.05;;
32138;SDS011;18644;48.700;9.210;2024-02-16T04:02:18;3.67;;;2.67;;
32138;SDS011;18644;48.700;9.210;2024-02-16T04:04:45;4.18;;;2.92;;
32138;SDS011;18644;48.700;9.210;2024-02-16T04:07:13;5.90;;;3.38;;
32138;SDS011;18644;48.700;9.210;2024-02-16T04:09:40;6.65;;;3.22;;
32138;SDS011;18644;48.700;9.210;2024-02-16T04:12:07;5.90;;;3.58;;
32138;SDS011;18644;48.700;9.210;2024-02-16T04:14:35;4.15;;;2.90;;
32138;SDS011;18644;48.700;9.210;2024-02-16T04:17:02;4.63;;;3.00;;
32138;SDS011;18644;48.700;9.210;2024-02-16T04:19:29;2.92;;;2.50;;
32138;SDS011;18644;48.700;9.210;2024-02-16T04:21:56;3.88;;;2.95;;
32138;SDS011;18644;48.700;9.210;2024-02-16T04:24:24;4.45;;;2.97;;
32138;SDS011;18644;48.700;9.210;2024-02-16T04:26:51;5.07;;;2.80;;
32138;SDS011;18644;48.700;9.210;2024-02-16T04:29:18;3.53;;;2.60;;
32138;SDS011;18644;48.700;9.210;2024-02-16T04:31:45;4.05;;;2.35;;
32138;SDS011;18644;48.700;9.210;2024-02-16T04:34:13;3.08;;;2.45;;
32138;SDS011;18644;48.700;9.210;2024-02-16T04:36:41;3.30;;;2.50;;
32138;SDS011;18644;48.700;9.210;2024-02-16T04:39:08;4.95;;;2.65;;
32138;SDS011;18644;48.700;9.210;2024-02-16T04:41:38;5.70;;;2.97;;
32138;SDS011;18644;48.700;9.210;2024-02-16T04:44:05;5.28;;;2.60;;
32138;SDS011;18644;48.700;9.210;2024-02-16T04:46:32;3.22;;;2.78;;
32138;SDS011;18644;48.700;9.210;2024-02-16T04:48:59;2.97;;;2.58;;
32138;SDS011;18644;48.700;9.210;2024-02-16T04:51:25;8.32;;;3.17;;
32138;SDS011;18644;48.700;9.210;2024-02-16T04:53:52;3.20;;;2.72;;
32138;SDS011;18644;48.700;9.210;2024-02-16T04:56:19;4.13;;;3.30;;
32138;SDS011;18644;48.700;9.210;2024-02-16T04:58:49;3.88;;;2.60;;
32138;SDS011;18644;48.700;9.210;2024-02-16T05:01:16;5.85;;;2.60;;
32138;SDS011;18644;48.700;9.210;2024-02-16T05:03:43;5.53;;;3.10;;
32138;SDS011;18644;48.700;9.210;2024-02-16T05:06:10;10.02;;;3.20;;
32138;SDS011;18644;48.700;9.210;2024-02-16T05:08:37;9.18;;;3.08;;
32138;SDS011;18644;48.700;9.210;2024-02-16T05:11:03;3.10;;;2.70;;
32138;SDS011;18644;48.700;9.210;2024-02-16T05:13:32;6.28;;;3.20;;
32138;SDS011;18644;48.700;9.210;2024-02-16T05:16:00;4.85;;;3.40;;
32138;SDS011;18644;48.700;9.210;2024-02-16T05:18:27;3.30;;;2.70;;
32138;SDS011;18644;48.700;9.210;2024-02-16T05:20:54;3.72;;;2.95;;
32138;SDS011;18644;48.700;9.210;2024-02-16T05:23:21;4.63;;;3.30;;
32138;SDS011;18644;48.700;9.210;2024-02-16T05:25:48;4.50;;;2.78;;
32138;SDS011;18644;48.700;9.210;2024-02-16T05:28:15;3.92;;;2.78;;
32138;SDS011;18644;48.700;9.210;2024-02-16T05:30:42;7.13;;;3.65;;
32138;SDS011;18644;48.700;9.210;2024-02-16T05:33:10;5.22;;;3.10;;
32138;SDS011;18644;48.700;9.210;2024-02-16T05:35:39;4.40;;;2.92;;
32138;SDS011;18644;48.700;9.210;2024-02-16T05:38:06;5.20;;;3.25;;
32138;SDS011;18644;48.700;9.210;2024-02-16T05:40:45;7.82;;;5.57;;
32138;SDS011;18644;48.700;9.210;2024-02-16T05:43:19;8.55;;;5.25;;
32138;SDS011;18644;48.700;9.210;2024-02-16T05:45:46;6.55;;;5.05;;
32138;SDS011;18644;48.700;9.210;2024-02-16T05:48:14;5.85;;;4.57;;
32138;SDS011;18644;48.700;9.210;2024-02-16T05:50:41;6.82;;;4.93;;
32138;SDS011;18644;48.700;9.210;2024-02-16T05:53:09;6.05;;;4.88;;
32138;SDS011;18644;48.700;9.210;2024-02-16T05:55:36;5.38;;;3.65;;
32138;SDS011;18644;48.700;9.210;2024-02-16T05:58:03;5.75;;;4.13;;
32138;SDS011;18644;48.700;9.210;2024-02-16T06:00:31;10.27;;;4.90;;
32138;SDS011;18644;48.700;9.210;2024-02-16T06:03:00;5.60;;;3.80;;
32138;SDS011;18644;48.700;9.210;2024-02-16T06:05:28;5.30;;;3.45;;
32138;SDS011;18644;48.700;9.210;2024-02-16T06:07:55;7.60;;;3.60;;
32138;SDS011;18644;48.700;9.210;2024-02-16T06:10:24;4.47;;;3.47;;
32138;SDS011;18644;48.700;9.210;2024-02-16T06:12:51;7.07;;;4.15;;
32138;SDS011;18644;48.700;9.210;2024-02-16T06:15:17;5.20;;;3.67;;
32138;SDS011;18644;48.700;9.210;2024-02-16T06:17:44;4.97;;;3.13;;
32138;SDS011;18644;48.700;9.210;2024-02-16T06:20:11;7.13;;;3.83;;
32138;SDS011;18644;48.700;9.210;2024-02-16T06:22:40;4.82;;;3.80;;
32138;SDS011;18644;48.700;9.210;2024-02-16T06:25:07;5.88;;;3.90;;
32138;SDS011;18644;48.700;9.210;2024-02-16T06:27:34;5.55;;;3.58;;
32138;SDS011;18644;48.700;9.210;2024-02-16T06:30:02;5.18;;;3.20;;
32138;SDS011;18644;48.700;9.210;2024-02-16T06:32:30;6.03;;;3.95;;
32138;SDS011;18644;48.700;9.210;2024-02-16T06:34:57;5.63;;;3.75;;
32138;SDS011;18644;48.700;9.210;2024-02-16T06:37:24;6.13;;;3.67;;
32138;SDS011;18644;48.700;9.210;2024-02-16T06:39:52;5.53;;;3.50;;
32138;SDS011;18644;48.700;9.210;2024-02-16T06:42:19;4.88;;;3.42;;
32138;SDS011;18644;48.700;9.210;2024-02-16T06:44:46;6.63;;;4.28;;
32138;SDS011;18644;48.700;9.210;2024-02-16T06:47:14;5.63;;;3.65;;
32138;SDS011;18644;48.700;9.210;2024-02-16T06:49:41;6.68;;;3.88;;
32138;SDS011;18644;48.700;9.210;2024-02-16T06:52:08;5.68;;;3.80;;
32138;SDS011;18644;48.700;9.210;2024-02-16T06:54:35;6.28;;;3.80;;
32138;SDS011;18644;48.700;9.210;2024-02-16T06:57:04;5.47;;;3.40;;
32138;SDS011;18644;48.700;9.210;2024-02-16T06:59:31;5.35;;;3.50;;
32138;SDS011;18644;48.700;9.210;2024-02-16T07:01:58;4.05;;;3.25;;
32138;SDS011;18644;48.700;9.210;2024-02-16T07:04:25;5.72;;;3.60;;
32138;SDS011;18644;48.700;9.210;2024-02-16T07:06:52;6.78;;;3.50;;
32138;SDS011;18644;48.700;9.210;2024-02-16T07:09:19;4.15;;;2.83;;
32138;SDS011;18644;48.700;9.210;2024-02-16T07:11:47;6.03;;;3.35;;
32138;SDS011;18644;48.700;9.210;2024-02-16T07:14:16;5.40;;;3.20;;
32138;SDS011;18644;48.700;9.210;2024-02-16T07:16:43;4.68;;;3.22;;
32138;SDS011;18644;48.700;9.210;2024-02-16T07:19:10;4.57;;;3.28;;
32138;SDS011;18644;48.700;9.210;2024-02-16T07:21:40;7.45;;;2.92;;
32138;SDS011;18644;48.700;9.210;2024-02-16T07:24:09;3.75;;;3.08;;
32138;SDS011;18644;48.700;9.210;2024-02-16T07:26:36;3.95;;;3.08;;
32138;SDS011;18644;48.700;9.210;2024-02-16T07:29:03;5.85;;;2.95;;
32138;SDS011;18644;48.700;9.210;2024-02-16T07:31:33;5.50;;;3.25;;
32138;SDS011;18644;48.700;9.210;2024-02-16T07:34:00;4.68;;;3.22;;
32138;SDS011;18644;48.700;9.210;2024-02-16T07:36:27;7.60;;;3.75;;
32138;SDS011;18644;48.700;9.210;2024-02-16T07:38:55;4.40;;;3.15;;
32138;SDS011;18644;48.700;9.210;2024-02-16T07:41:22;6.63;;;3.75;;
32138;SDS011;18644;48.700;9.210;2024-02-16T07:43:48;5.20;;;3.55;;
32138;SDS011;18644;48.700;9.210;2024-02-16T07:46:16;4.05;;;3.00;;
32138;SDS011;18644;48.700;9.210;2024-02-16T07:48:44;6.15;;;3.35;;
32138;SDS011;18644;48.700;9.210;2024-02-16T07:51:11;5.38;;;3.60;;
32138;SDS011;18644;48.700;9.210;2024-02-16T07:53:38;5.47;;;3.42;;
32138;SDS011;18644;48.700;9.210;2024-02-16T07:56:07;4.65;;;3.03;;
32138;SDS011;18644;48.700;9.210;2024-02-16T07:58:34;6.72;;;3.30;;
32138;SDS011;18644;48.700;9.210;2024-02-16T08:01:01;6.63;;;3.30;;
32138;SDS011;18644;48.700;9.210;2024-02-16T08:03:28;6.30;;;3.00;;
32138;SDS011;18644;48.700;9.210;2024-02-16T08:05:57;3.90;;;3.25;;
32138;SDS011;18644;48.700;9.210;2024-02-16T08:08:23;4.03;;;3.00;;
32138;SDS011;18644;48.700;9.210;2024-02-16T08:10:51;4.88;;;3.47;;
32138;SDS011;18644;48.700;9.210;2024-02-16T08:13:18;8.02;;;3.15;;
32138;SDS011;18644;48.700;9.210;2024-02-16T08:15:45;4.10;;;3.25;;
32138;SDS011;18644;48.700;9.210;2024-02-16T08:18:13;4.35;;;2.80;;
32138;SDS011;18644;48.700;9.210;2024-02-16T08:20:41;6.15;;;3.13;;
32138;SDS011;18644;48.700;9.210;2024-02-16T08:23:09;6.68;;;3.78;;
32138;SDS011;18644;48.700;9.210;2024-02-16T08:25:36;4.05;;;3.03;;
32138;SDS011;18644;48.700;9.210;2024-02-16T08:28:03;6.50;;;3.55;;
32138;SDS011;18644;48.700;9.210;2024-02-16T08:30:31;5.03;;;3.13;;
32138;SDS011;18644;48.700;9.210;2024-02-16T08:32:58;6.75;;;3.30;;
32138;SDS011;18644;48.700;9.210;2024-02-16T08:35:26;6.32;;;3.28;;
32138;SDS011;18644;48.700;9.210;2024-02-16T08:37:53;7.32;;;3.38;;
32138;SDS011;18644;48.700;9.210;2024-02-16T08:40:21;4.78;;;3.50;;
32138;SDS011;18644;48.700;9.210;2024-02-16T08:42:48;5.57;;;3.53;;
32138;SDS011;18644;48.700;9.210;2024-02-16T08:45:15;5.90;;;3.70;;
32138;SDS011;18644;48.700;9.210;2024-02-16T08:47:42;4.90;;;3.55;;
32138;SDS011;18644;48.700;9.210;2024-02-16T08:50:10;5.78;;;3.80;;
32138;SDS011;18644;48.700;9.210;2024-02-16T08:52:37;6.80;;;4.38;;
32138;SDS011;18644;48.700;9.210;2024-02-16T08:55:04;7.25;;;3.88;;
32138;SDS011;18644;48.700;9.210;2024-02-16T08:57:34;9.00;;;2.05;;
32138;SDS011;18644;48.700;9.210;2024-02-16T09:00:01;2.45;;;1.73;;
32138;SDS011;18644;48.700;9.210;2024-02-16T09:02:29;2.63;;;1.30;;
32138;SDS011;18644;48.700;9.210;2024-02-16T09:04:56;3.17;;;1.40;;
32138;SDS011;18644;48.700;9.210;2024-02-16T09:07:23;4.05;;;1.33;;
32138;SDS011;18644;48.700;9.210;2024-02-16T09:09:50;2.22;;;1.20;;
32138;SDS011;18644;48.700;9.210;2024-02-16T09:12:17;1.58;;;1.20;;
32138;SDS011;18644;48.700;9.210;2024-02-16T09:14:46;2.10;;;1.42;;
32138;SDS011;18644;48.700;9.210;2024-02-16T09:17:12;3.03;;;1.20;;
32138;SDS011;18644;48.700;9.210;2024-02-16T09:19:39;2.58;;;1.40;;
32138;SDS011;18644;48.700;9.210;2024-02-16T09:22:06;3.35;;;1.13;;
32138;SDS011;18644;48.700;9.210;2024-02-16T09:24:33;2.88;;;1.73;;
32138;SDS011;18644;48.700;9.210;2024-02-16T09:27:00;2.97;;;1.90;;
32138;SDS011;18644;48.700;9.210;2024-02-16T09:29:29;10.63;;;5.85;;
32138;SDS011;18644;48.700;9.210;2024-02-16T09:31:57;9.02;;;5.90;;
32138;SDS011;18644;48.700;9.210;2024-02-16T09:34:24;6.53;;;3.65;;
32138;SDS011;18644;48.700;9.210;2024-02-16T09:36:51;3.22;;;2.10;;
32138;SDS011;18644;48.700;9.210;2024-02-16T09:39:18;2.40;;;1.50;;
32138;SDS011;18644;48.700;9.210;2024-02-16T09:41:45;1.88;;;1.30;;
32138;SDS011;18644;48.700;9.210;2024-02-16T09:44:17;2.35;;;1.10;;
32138;SDS011;18644;48.700;9.210;2024-02-16T09:46:46;1.83;;;0.90;;
32138;SDS011;18644;48.700;9.210;2024-02-16T09:49:14;2.38;;;1.10;;
32138;SDS011;18644;48.700;9.210;2024-02-16T09:51:41;3.92;;;0.90;;
32138;SDS011;18644;48.700;9.210;2024-02-16T09:54:08;0.82;;;0.70;;
32138;SDS011;18644;48.700;9.210;2024-02-16T09:56:36;1.23;;;1.00;;
32138;SDS011;18644;48.700;9.210;2024-02-16T09:59:03;1.20;;;0.80;;
32138;SDS011;18644;48.700;9.210;2024-02-16T10:01:32;3.47;;;1.20;;
32138;SDS011;18644;48.700;9.210;2024-02-16T10:03:59;1.67;;;1.30;;
32138;SDS011;18644;48.700;9.210;2024-02-16T10:06:39;2.85;;;1.05;;
32138;SDS011;18644;48.700;9.210;2024-02-16T10:09:21;0.70;;;0.70;;
32138;SDS011;18644;48.700;9.210;2024-02-16T10:11:49;1.63;;;0.88;;
32138;SDS011;18644;48.700;9.210;2024-02-16T10:14:17;1.70;;;0.95;;
32138;SDS011;18644;48.700;9.210;2024-02-16T10:16:44;1.67;;;1.00;;
32138;SDS011;18644;48.700;9.210;2024-02-16T10:19:12;1.63;;;0.93;;
32138;SDS011;18644;48.700;9.210;2024-02-16T10:21:41;2.33;;;0.90;;
32138;SDS011;18644;48.700;9.210;2024-02-16T10:24:08;1.52;;;1.02;;
32138;SDS011;18644;48.700;9.210;2024-02-16T10:26:39;4.25;;;0.98;;
32138;SDS011;18644;48.700;9.210;2024-02-16T10:29:07;1.52;;;1.00;;
32138;SDS011;18644;48.700;9.210;2024-02-16T10:31:35;2.40;;;1.10;;
32138;SDS011;18644;48.700;9.210;2024-02-16T10:34:03;2.78;;;1.00;;
32138;SDS011;18644;48.700;9.210;2024-02-16T10:36:32;1.13;;;1.00;;
32138;SDS011;18644;48.700;9.210;2024-02-16T10:39:02;1.73;;;1.10;;
32138;SDS011;18644;48.700;9.210;2024-02-16T10:41:32;1.80;;;1.00;;
32138;SDS011;18644;48.700;9.210;2024-02-16T10:44:01;1.42;;;1.13;;
32138;SDS011;18644;48.700;9.210;2024-02-16T10:46:30;1.10;;;0.90;;
32138;SDS011;18644;48.700;9.210;2024-02-16T10:48:58;1.38;;;1.10;;
32138;SDS011;18644;48.700;9.210;2024-02-16T10:51:28;1.00;;;0.90;;
32138;SDS011;18644;48.700;9.210;2024-02-16T10:53:57;2.30;;;0.98;;
32138;SDS011;18644;48.700;9.210;2024-02-16T10:56:32;1.17;;;0.88;;
32138;SDS011;18644;48.700;9.210;2024-02-16T10:59:01;2.13;;;1.10;;
32138;SDS011;18644;48.700;9.210;2024-02-16T11:01:31;2.45;;;1.20;;
32138;SDS011;18644;48.700;9.210;2024-02-16T11:04:03;2.22;;;1.23;;
32138;SDS011;18644;48.700;9.210;2024-02-16T11:06:33;2.30;;;0.90;;
32138;SDS011;18644;48.700;9.210;2024-02-16T11:09:26;6.45;;;1.17;;
32138;SDS011;18644;48.700;9.210;2024-02-16T11:11:54;1.38;;;1.00;;
32138;SDS011;18644;48.700;9.210;2024-02-16T11:14:33;4.00;;;1.00;;
32138;SDS011;18644;48.700;9.210;2024-02-16T11:17:02;1.23;;;1.02;;
32138;SDS011;18644;48.700;9.210;2024-02-16T11:19:34;3.38;;;1.27;;
32138;SDS011;18644;48.700;9.210;2024-02-16T11:22:02;1.73;;;1.20;;
32138;SDS011;18644;48.700;9.210;2024-02-16T11:24:34;1.23;;;1.00;;
32138;SDS011;18644;48.700;9.210;2024-02-16T11:27:02;1.23;;;0.90;;
32138;SDS011;18644;48.700;9.210;2024-02-16T11:29:31;1.90;;;1.08;;
32138;SDS011;18644;48.700;9.210;2024-02-16T11:31:59;2.38;;;1.30;;
32138;SDS011;18644;48.700;9.210;2024-02-16T11:34:28;1.50;;;1.20;;
32138;SDS011;18644;48.700;9.210;2024-02-16T11:36:56;1.42;;;1.10;;
32138;SDS011;18644;48.700;9.210;2024-02-16T11:39:24;1.58;;;1.08;;
32138;SDS011;18644;48.700;9.210;2024-02-16T11:42:03;3.50;;;1.52;;
32138;SDS011;18644;48.700;9.210;2024-02-16T11:44:32;1.20;;;1.00;;
32138;SDS011;18644;48.700;9.210;2024-02-16T11:47:04;1.42;;;1.00;;
32138;SDS011;18644;48.700;9.210;2024-02-16T11:49:35;1.20;;;0.93;;
32138;SDS011;18644;48.700;9.210;2024-02-16T11:52:04;5.07;;;1.08;;
32138;SDS011;18644;48.700;9.210;2024-02-16T11:54:31;1.98;;;1.02;;
32138;SDS011;18644;48.700;9.210;2024-02-16T11:56:57;1.50;;;0.80;;
32138;SDS011;18644;48.700;9.210;2024-02-16T11:59:26;2.03;;;1.10;;
32138;SDS011;18644;48.700;9.210;2024-02-16T12:01:54;1.30;;;0.80;;
32138;SDS011;18644;48.700;9.210;2024-02-16T12:04:22;1.67;;;0.93;;
32138;SDS011;18644;48.700;9.210;2024-02-16T12:06:51;1.23;;;0.95;;
32138;SDS011;18644;48.700;9.210;2024-02-16T12:09:19;1.70;;;1.05;;
32138;SDS011;18644;48.700;9.210;2024-02-16T12:11:47;1.88;;;0.90;;
32138;SDS011;18644;48.700;9.210;2024-02-16T12:14:15;5.00;;;1.20;;
32138;SDS011;18644;48.700;9.210;2024-02-16T12:16:46;1.38;;;0.90;;
32138;SDS011;18644;48.700;9.210;2024-02-16T12:19:14;3.28;;;1.00;;
32138;SDS011;18644;48.700;9.210;2024-02-16T12:21:42;1.33;;;0.90;;
32138;SDS011;18644;48.700;9.210;2024-02-16T12:24:09;0.80;;;0.80;;
32138;SDS011;18644;48.700;9.210;2024-02-16T12:26:36;1.15;;;1.05;;
32138;SDS011;18644;48.700;9.210;2024-02-16T12:29:04;2.03;;;1.10;;
32138;SDS011;18644;48.700;9.210;2024-02-16T12:31:31;1.27;;;1.02;;
32138;SDS011;18644;48.700;9.210;2024-02-16T12:34:04;2.60;;;1.08;;
32138;SDS011;18644;48.700;9.210;2024-02-16T12:36:32;3.15;;;1.00;;
32138;SDS011;18644;48.700;9.210;2024-02-16T12:38:59;1.95;;;1.02;;
32138;SDS011;18644;48.700;9.210;2024-02-16T12:41:28;1.00;;;0.80;;
32138;SDS011;18644;48.700;9.210;2024-02-16T12:43:55;4.72;;;1.00;;
32138;SDS011;18644;48.700;9.210;2024-02-16T12:46:22;1.13;;;0.90;;
32138;SDS011;18644;48.700;9.210;2024-02-16T12:48:49;1.40;;;1.02;;
32138;SDS011;18644;48.700;9.210;2024-02-16T12:51:18;2.38;;;1.10;;
32138;SDS011;18644;48.700;9.210;2024-02-16T12:53:46;2.58;;;0.90;;
32138;SDS011;18644;48.700;9.210;2024-02-16T12:56:13;2.58;;;1.13;;
32138;SDS011;18644;48.700;9.210;2024-02-16T12:58:40;2.20;;;1.38;;
32138;SDS011;18644;48.700;9.210;2024-02-16T13:01:06;2.45;;;1.27;;
32138;SDS011;18644;48.700;9.210;2024-02-16T13:03:34;2.97;;;1.20;;
32138;SDS011;18644;48.700;9.210;2024-02-16T13:06:02;18.70;;;2.20;;
32138;SDS011;18644;48.700;9.210;2024-02-16T13:08:31;1.63;;;0.88;;
32138;SDS011;18644;48.700;9.210;2024-02-16T13:10:58;1.80;;;0.98;;
32138;SDS011;18644;48.700;9.210;2024-02-16T13:13:25;1.17;;;0.93;;
32138;SDS011;18644;48.700;9.210;2024-02-16T13:15:52;3.15;;;0.90;;
32138;SDS011;18644;48.700;9.210;2024-02-16T13:18:21;3.25;;;1.10;;
32138;SDS011;18644;48.700;9.210;2024-02-16T13:20:48;1.25;;;1.10;;
32138;SDS011;18644;48.700;9.210;2024-02-16T13:23:15;3.35;;;1.13;;
32138;SDS011;18644;48.700;9.210;2024-02-16T13:25:43;3.08;;;1.00;;
32138;SDS011;18644;48.700;9.210;2024-02-16T13:28:10;4.88;;;1.10;;
32138;SDS011;18644;48.700;9.210;2024-02-16T13:30:37;2.60;;;1.02;;
32138;SDS011;18644;48.700;9.210;2024-02-16T13:33:04;2.70;;;1.30;;
32138;SDS011;18644;48.700;9.210;2024-02-16T13:35:33;4.20;;;1.00;;
32138;SDS011;18644;48.700;9.210;2024-02-16T13:38:02;4.22;;;1.20;;
32138;SDS011;18644;48.700;9.210;2024-02-16T13:40:29;1.05;;;0.80;;
32138;SDS011;18644;48.700;9.210;2024-02-16T13:42:59;2.08;;;1.13;;
32138;SDS011;18644;48.700;9.210;2024-02-16T13:45:28;4.03;;;1.40;;
32138;SDS011;18644;48.700;9.210;2024-02-16T13:48:13;2.65;;;1.08;;
32138;SDS011;18644;48.700;9.210;2024-02-16T13:50:40;3.28;;;1.10;;
32138;SDS011;18644;48.700;9.210;2024-02-16T13:53:10;1.25;;;0.90;;
32138;SDS011;18644;48.700;9.210;2024-02-16T13:55:37;1.63;;;1.10;;
32138;SDS011;18644;48.700;9.210;2024-02-16T13:58:06;2.17;;;0.95;;
32138;SDS011;18644;48.700;9.210;2024-02-16T14:00:33;4.50;;;1.13;;
32138;SDS011;18644;48.700;9.210;2024-02-16T14:03:00;3.80;;;1.40;;
32138;SDS011;18644;48.700;9.210;2024-02-16T14:05:27;1.60;;;0.90;;
32138;SDS011;18644;48.700;9.210;2024-02-16T14:07:55;2.10;;;0.90;;
32138;SDS011;18644;48.700;9.210;2024-02-16T14:10:21;1.75;;;1.10;;
32138;SDS011;18644;48.700;9.210;2024-02-16T14:12:48;2.08;;;1.40;;
32138;SDS011;18644;48.700;9.210;2024-02-16T14:15:16;2.28;;;1.50;;
32138;SDS011;18644;48.700;9.210;2024-02-16T14:17:44;2.78;;;1.17;;
32138;SDS011;18644;48.700;9.210;2024-02-16T14:20:11;2.55;;;1.20;;
32138;SDS011;18644;48.700;9.210;2024-02-16T14:22:38;2.72;;;1.27;;
32138;SDS011;18644;48.700;9.210;2024-02-16T14:25:04;2.33;;;1.25;;
32138;SDS011;18644;48.700;9.210;2024-02-16T14:27:35;3.72;;;1.23;;
32138;SDS011;18644;48.700;9.210;2024-02-16T14:30:02;3.08;;;1.42;;
32138;SDS011;18644;48.700;9.210;2024-02-16T14:32:32;2.97;;;1.30;;
32138;SDS011;18644;48.700;9.210;2024-02-16T14:34:58;4.10;;;1.20;;
32138;SDS011;18644;48.700;9.210;2024-02-16T14:37:26;1.83;;;1.10;;
32138;SDS011;18644;48.700;9.210;2024-02-16T14:39:54;1.58;;;1.00;;
32138;SDS011;18644;48.700;9.210;2024-02-16T14:42:22;4.22;;;1.48;;
32138;SDS011;18644;48.700;9.210;2024-02-16T14:44:49;2.80;;;1.50;;
32138;SDS011;18644;48.700;9.210;2024-02-16T14:47:16;2.40;;;1.35;;
32138;SDS011;18644;48.700;9.210;2024-02-16T14:49:45;3.22;;;1.35;;
32138;SDS011;18644;48.700;9.210;2024-02-16T14:52:14;2.33;;;1.40;;